Time;durP1;ratioP1;P1;durP2;ratioP2;P2;SDS_P1;SDS_P2;PMS_P1;PMS_P2;Temp;Humidity;BMP_temperature;BMP_pressure;BME280_temperature;BME280_humidity;BME280_pressure;Samples;Min_cycle;Max_cycle;Signal;HPM_P1;HPM_P2
2023/04/17 02:50:28;;;;;;;0.60;0.60;;;;;;;12.73;83.17;96356.03;5121568;27;20914;-59
2023/04/17 02:52:55;;;;;;;0.50;0.50;;;;;;;12.12;86.08;96345.44;5121926;27;20079;-59
2023/04/17 02:55:22;;;;;;;0.50;0.50;;;;;;;11.53;90.16;96340.59;5121926;27;20074;-63
2023/04/17 02:57:48;;;;;;;0.50;0.50;;;;;;;11.16;91.76;96340.09;5121880;27;20470;-61
2023/04/17 03:00:15;;;;;;;0.50;0.50;;;;;;;10.80;95.18;96346.66;5121406;27;20046;-61
2023/04/17 03:02:42;;;;;;;0.50;0.50;;;;;;;10.18;100.00;96302.41;5121245;27;20162;-62
2023/04/17 03:05:10;;;;;;;0.50;0.50;;;;;;;9.95;100.00;96271.41;5121218;27;20051;-64
2023/04/17 03:07:37;;;;;;;0.50;0.50;;;;;;;10.30;100.00;96334.53;5121588;27;20616;-61
2023/04/17 03:10:05;;;;;;;0.50;0.50;;;;;;;10.20;100.00;96344.34;5121642;27;20132;-61
2023/04/17 03:12:31;;;;;;;0.50;0.50;;;;;;;9.91;100.00;96270.56;5121950;27;20087;-61
2023/04/17 03:14:58;;;;;;;0.50;0.50;;;;;;;10.34;100.00;96336.13;5121610;27;20551;-62
2023/04/17 03:17:25;;;;;;;0.45;0.45;;;;;;;10.35;100.00;96337.72;5121080;27;20140;-62
2023/04/17 03:19:51;;;;;;;0.47;0.47;;;;;;;10.13;100.00;96305.53;5119643;28;20059;-63
2023/04/17 03:22:18;;;;;;;0.50;0.50;;;;;;;10.37;100.00;96335.34;5121458;27;20051;-61
2023/04/17 03:24:45;;;;;;;0.50;0.50;;;;;;;10.32;100.00;96329.41;5119835;28;20047;-63
2023/04/17 03:27:11;;;;;;;0.50;0.50;;;;;;;10.38;100.00;96345.28;5121284;27;20490;-61
2023/04/17 03:29:38;;;;;;;0.50;0.50;;;;;;;10.41;100.00;96322.34;5121492;27;20058;-63
2023/04/17 03:32:05;;;;;;;0.43;0.43;;;;;;;10.54;100.00;96331.91;5119790;28;20040;-61
2023/04/17 03:34:32;;;;;;;0.50;0.50;;;;;;;10.37;100.00;96329.03;5120058;28;20085;-62
2023/04/17 03:36:59;;;;;;;0.50;0.50;;;;;;;9.82;100.00;96333.75;5120936;27;20043;-61
2023/04/17 03:39:25;;;;;;;0.50;0.50;;;;;;;10.04;100.00;96348.53;5121035;27;20513;-63
2023/04/17 03:41:52;;;;;;;0.50;0.50;;;;;;;10.26;100.00;96359.41;5119840;28;20051;-61
2023/04/17 03:44:19;;;;;;;0.50;0.50;;;;;;;9.37;100.00;96223.56;5119666;28;20455;-61
2023/04/17 03:46:45;;;;;;;0.43;0.43;;;;;;;9.77;100.00;96303.66;5121362;27;20047;-62
2023/04/17 03:49:12;;;;;;;0.50;0.50;;;;;;;10.22;100.00;96389.03;5118638;28;20086;-62
2023/04/17 03:51:41;;;;;;;0.50;0.50;;;;;;;10.12;100.00;96386.97;5105166;28;20497;-61
2023/04/17 03:54:08;;;;;;;0.50;0.50;;;;;;;10.14;100.00;96379.09;5106757;28;20079;-61
2023/04/17 03:56:34;;;;;;;0.45;0.45;;;;;;;9.99;100.00;96341.38;5106816;28;20050;-61
2023/04/17 03:59:03;;;;;;;0.50;0.50;;;;;;;9.77;100.00;96308.44;5106358;27;20134;-61
2023/04/17 04:01:31;;;;;;;0.50;0.50;;;;;;;10.18;100.00;96385.44;5093454;28;20131;-62
2023/04/17 04:03:58;;;;;;;0.43;0.43;;;;;;;10.37;100.00;96376.88;5086158;28;20047;-61
2023/04/17 04:06:28;;;;;;;0.50;0.50;;;;;;;10.37;100.00;96382.41;5085713;28;20422;-61
2023/04/17 04:08:56;;;;;;;0.40;0.40;;;;;;;10.37;100.00;96354.75;5086185;28;20404;-62
2023/04/17 04:11:22;;;;;;;0.50;0.50;;;;;;;10.06;100.00;96313.78;5086002;28;20059;-61
2023/04/17 04:13:49;;;;;;;0.40;0.40;;;;;;;9.88;100.00;96299.00;5086053;28;20086;-62
2023/04/17 04:16:16;;;;;;;0.50;0.50;;;;;;;10.53;100.00;96369.09;5085717;28;20044;-61
2023/04/17 04:18:42;;;;;;;0.45;0.45;;;;;;;10.53;100.00;96352.47;5084237;28;20090;-62
2023/04/17 04:21:10;;;;;;;0.50;0.50;;;;;;;10.39;100.00;96329.44;5085621;28;20691;-61
2023/04/17 04:23:39;;;;;;;0.50;0.50;;;;;;;9.92;100.00;96260.31;5085166;28;20151;-62
2023/04/17 04:26:06;;;;;;;0.50;0.50;;;;;;;10.58;100.00;96354.88;5085145;28;20086;-61
2023/04/17 04:28:33;;;;;;;0.50;0.50;;;;;;;10.77;100.00;96362.09;5083621;28;20077;-62
2023/04/17 04:31:01;;;;;;;0.50;0.50;;;;;;;10.73;100.00;96356.53;5086033;28;20048;-63
2023/04/17 04:33:28;;;;;;;0.50;0.50;;;;;;;10.07;100.00;96246.22;5085547;28;20420;-63
2023/04/17 04:35:59;;;;;;;0.50;0.50;;;;;;;10.86;100.00;96372.84;5085883;28;20054;-62
2023/04/17 04:38:31;;;;;;;0.50;0.50;;;;;;;10.92;100.00;96362.97;5103029;28;20053;-62
2023/04/17 04:41:04;;;;;;;0.50;0.50;;;;;;;11.04;100.00;96365.38;5106338;28;20051;-63
2023/04/17 04:43:32;;;;;;;0.50;0.50;;;;;;;11.04;100.00;96362.59;5105967;28;20051;-62
2023/04/17 04:45:59;;;;;;;0.60;0.60;;;;;;;10.77;100.00;96312.22;5105766;28;20047;-63
2023/04/17 04:48:27;;;;;;;0.50;0.50;;;;;;;11.13;100.00;96363.06;5103863;28;20066;-65
2023/04/17 04:50:56;;;;;;;0.50;0.50;;;;;;;9.65;100.00;96124.25;5106216;28;20554;-61
2023/04/17 04:53:23;;;;;;;0.50;0.50;;;;;;;11.35;100.00;96350.84;5106089;28;20420;-63
2023/04/17 04:55:50;;;;;;;0.50;0.50;;;;;;;11.41;100.00;96363.16;5104096;28;20078;-65
2023/04/17 04:58:16;;;;;;;0.57;0.57;;;;;;;11.31;100.00;96330.63;5105793;28;20085;-62
2023/04/17 05:00:43;;;;;;;0.60;0.60;;;;;;;11.16;100.00;96329.78;5104342;28;20112;-62
2023/04/17 05:03:10;;;;;;;0.50;0.50;;;;;;;9.25;100.00;96011.09;5103336;28;20055;-63
2023/04/17 05:05:38;;;;;;;0.50;0.50;;;;;;;11.56;100.00;96370.31;5105801;28;20425;-62
2023/04/17 05:08:05;;;;;;;0.50;0.50;;;;;;;11.02;100.00;96284.63;5103739;28;20466;-63
2023/04/17 05:10:32;;;;;;;0.52;0.52;;;;;;;11.31;100.00;96322.31;5105943;27;20055;-65
2023/04/17 05:12:58;;;;;;;0.57;0.57;;;;;;;11.71;100.00;96361.63;5105687;28;20051;-62
2023/04/17 05:15:26;;;;;;;0.50;0.50;;;;;;;11.66;100.00;96364.03;5103998;28;20059;-63
2023/04/17 05:17:53;;;;;;;0.50;0.50;;;;;;;11.72;100.00;96368.00;5105231;27;20506;-63
2023/04/17 05:20:20;;;;;;;0.50;0.50;;;;;;;9.60;100.00;96038.09;5105810;28;20055;-63
2023/04/17 05:22:47;;;;;;;0.50;0.50;;;;;;;11.79;100.00;96381.88;5105208;28;20059;-63
2023/04/17 05:25:15;;;;;;;0.60;0.60;;;;;;;11.24;100.00;96336.94;5105467;28;20074;-65
2023/04/17 05:27:42;;;;;;;0.60;0.60;;;;;;;11.58;100.00;96379.84;5098506;28;20407;-64
2023/04/17 05:30:09;;;;;;;0.50;0.50;;;;;;;11.70;100.00;96410.00;5084935;28;20097;-62
2023/04/17 05:32:35;;;;;;;0.50;0.50;;;;;;;11.76;100.00;96407.66;5085115;28;20048;-64
2023/04/17 05:35:04;;;;;;;0.60;0.60;;;;;;;11.71;100.00;96405.25;5083510;28;20050;-65
2023/04/17 05:37:30;;;;;;;0.50;0.50;;;;;;;11.38;100.00;96359.16;5093733;28;20297;-64
2023/04/17 05:39:59;;;;;;;0.50;0.50;;;;;;;11.76;100.00;96402.09;5105130;28;20047;-63
2023/04/17 05:42:26;;;;;;;0.50;0.50;;;;;;;11.39;100.00;96348.88;5104113;28;20066;-63
2023/04/17 05:44:52;;;;;;;0.50;0.50;;;;;;;11.71;100.00;96360.88;5105082;28;20568;-66
2023/04/17 05:47:19;;;;;;;0.50;0.50;;;;;;;11.92;100.00;96399.72;5102902;28;20043;-63
2023/04/17 05:49:47;;;;;;;0.50;0.50;;;;;;;11.85;100.00;96380.31;5102797;28;20051;-64
2023/04/17 05:52:14;;;;;;;0.50;0.50;;;;;;;11.71;100.00;96378.28;5103267;28;20049;-65
2023/04/17 05:54:40;;;;;;;0.50;0.50;;;;;;;11.69;100.00;96390.97;5103171;28;20108;-62
2023/04/17 05:57:07;;;;;;;0.60;0.60;;;;;;;11.13;100.00;96302.09;5103649;28;20090;-63
2023/04/17 05:59:34;;;;;;;0.50;0.50;;;;;;;9.38;100.00;96020.66;5101293;28;20139;-63
2023/04/17 06:02:00;;;;;;;0.50;0.50;;;;;;;10.80;100.00;96227.53;5101780;28;20051;-62
2023/04/17 06:04:28;;;;;;;0.52;0.52;;;;;;;11.77;100.00;96403.69;5084079;28;20585;-64
2023/04/17 06:06:55;;;;;;;0.50;0.50;;;;;;;10.72;100.00;96225.97;5089700;28;20097;-63
2023/04/17 06:09:22;;;;;;;0.57;0.57;;;;;;;11.88;100.00;96415.59;5083362;28;20051;-69
2023/04/17 06:11:51;;;;;;;0.50;0.50;;;;;;;11.43;100.00;96322.72;5082968;28;20044;-68
2023/04/17 06:14:17;;;;;;;0.52;0.52;;;;;;;12.05;100.00;96421.16;5083387;28;20084;-67
2023/04/17 06:16:44;;;;;;;0.50;0.50;;;;;;;11.22;100.00;96327.44;5092894;28;20047;-66
2023/04/17 06:19:11;;;;;;;0.50;0.50;;;;;;;10.92;100.00;96246.59;5083593;28;20597;-61
2023/04/17 06:21:38;;;;;;;0.52;0.52;;;;;;;11.90;100.00;96385.47;5094228;28;20530;-68
2023/04/17 06:24:05;;;;;;;0.60;0.60;;;;;;;12.25;100.00;96429.13;5101669;28;20050;-66
2023/04/17 06:26:32;;;;;;;0.50;0.50;;;;;;;12.13;100.00;96435.84;5103913;28;20051;-66
2023/04/17 06:28:59;;;;;;;0.50;0.50;;;;;;;10.21;100.00;96137.59;5103714;28;20082;-65
2023/04/17 06:31:26;;;;;;;0.50;0.50;;;;;;;12.13;100.00;96439.44;5102012;28;20047;-62
2023/04/17 06:33:53;;;;;;;0.50;0.50;;;;;;;12.16;100.00;96443.38;5086726;28;20551;-71
2023/04/17 06:36:20;;;;;;;0.55;0.55;;;;;;;12.18;100.00;96446.56;5093281;28;20052;-64
2023/04/17 06:38:47;;;;;;;0.50;0.50;;;;;;;12.23;100.00;96454.50;5097297;28;20048;-67
2023/04/17 06:41:13;;;;;;;0.50;0.50;;;;;;;12.18;100.00;96452.13;5103876;28;20175;-63
2023/04/17 06:43:40;;;;;;;0.50;0.50;;;;;;;12.02;100.00;96427.50;5103845;28;20113;-71
2023/04/17 06:46:07;;;;;;;0.50;0.50;;;;;;;12.24;100.00;96456.09;5101657;28;20055;-70
2023/04/17 06:48:34;;;;;;;0.50;0.50;;;;;;;11.09;100.00;96287.41;5088486;28;20071;-71
2023/04/17 06:51:00;;;;;;;0.60;0.60;;;;;;;12.20;100.00;96455.31;5091073;28;20060;-62
2023/04/17 06:53:27;;;;;;;0.50;0.50;;;;;;;11.79;100.00;96410.41;5082817;28;20506;-62
2023/04/17 06:55:53;;;;;;;0.50;0.50;;;;;;;11.85;100.00;96416.38;5083132;28;20055;-65
2023/04/17 06:58:20;;;;;;;0.60;0.60;;;;;;;11.65;100.00;96374.31;5082968;28;20117;-69
2023/04/17 07:00:47;;;;;;;0.52;0.52;;;;;;;12.16;100.00;96454.47;5094627;28;20064;-69
2023/04/17 07:03:13;;;;;;;0.50;0.50;;;;;;;12.22;100.00;96464.00;5096926;28;20097;-64
2023/04/17 07:05:43;;;;;;;0.50;0.50;;;;;;;12.22;100.00;96469.56;5084584;28;20125;-62
2023/04/17 07:08:09;;;;;;;0.50;0.50;;;;;;;11.76;100.00;96419.53;5081612;28;20052;-64
2023/04/17 07:10:36;;;;;;;0.60;0.60;;;;;;;12.27;100.00;96480.28;5082955;28;20473;-63
2023/04/17 07:13:02;;;;;;;0.60;0.60;;;;;;;11.93;100.00;96440.97;5097271;28;20105;-62
2023/04/17 07:15:30;;;;;;;0.55;0.55;;;;;;;11.55;100.00;96360.41;5102907;28;20646;-64
2023/04/17 07:17:57;;;;;;;0.50;0.50;;;;;;;12.30;100.00;96487.81;5101758;28;20051;-66
2023/04/17 07:20:23;;;;;;;0.50;0.50;;;;;;;12.18;100.00;96458.47;5102696;27;20592;-62
2023/04/17 07:22:50;;;;;;;0.50;0.50;;;;;;;11.85;100.00;96433.03;5101161;28;20051;-66
2023/04/17 07:25:18;;;;;;;0.50;0.50;;;;;;;11.41;100.00;96340.97;5083530;28;20048;-69
2023/04/17 07:27:45;;;;;;;0.50;0.50;;;;;;;12.27;100.00;96482.25;5084977;28;20063;-63
2023/04/17 07:30:12;;;;;;;0.50;0.50;;;;;;;11.50;100.00;96366.34;5085215;28;20520;-68
2023/04/17 07:32:38;;;;;;;0.50;0.50;;;;;;;12.22;100.00;96485.44;5087916;28;20100;-64
2023/04/17 07:35:06;;;;;;;0.50;0.50;;;;;;;11.79;100.00;96434.59;5101393;28;20058;-73
2023/04/17 07:37:33;;;;;;;0.52;0.52;;;;;;;11.98;100.00;96454.44;5086517;28;20055;-68
2023/04/17 07:40:00;;;;;;;0.50;0.50;;;;;;;11.66;100.00;96408.41;5084883;28;20048;-66
2023/04/17 07:42:28;;;;;;;0.57;0.57;;;;;;;10.52;100.00;96256.75;5087424;28;20052;-69
2023/04/17 07:44:56;;;;;;;0.50;0.50;;;;;;;12.08;100.00;96484.22;5100238;28;20382;-63
2023/04/17 07:47:23;;;;;;;0.50;0.50;;;;;;;12.08;100.00;96478.66;5098142;28;20511;-71
2023/04/17 07:49:50;;;;;;;0.50;0.50;;;;;;;11.07;100.00;96404.19;5104588;28;20063;-66
2023/04/17 07:52:16;;;;;;;0.50;0.50;;;;;;;11.27;100.00;96485.09;5094519;28;20048;-65
2023/04/17 07:54:43;;;;;;;0.50;0.50;;;;;;;11.04;100.00;96442.97;5086591;28;20446;-68
2023/04/17 07:57:10;;;;;;;0.40;0.40;;;;;;;11.07;100.00;96450.50;5092002;28;20077;-69
2023/04/17 07:59:37;;;;;;;0.43;0.43;;;;;;;10.40;100.00;96320.75;5105394;28;20566;-69
2023/04/17 08:02:04;;;;;;;0.50;0.50;;;;;;;10.73;100.00;96400.84;5092660;28;20075;-62
2023/04/17 08:04:31;;;;;;;0.45;0.45;;;;;;;10.41;100.00;96394.34;5087345;28;20048;-64
2023/04/17 08:06:59;;;;;;;0.50;0.50;;;;;;;11.05;100.00;96472.28;5087481;28;20591;-63
2023/04/17 08:09:25;;;;;;;0.50;0.50;;;;;;;10.45;100.00;96400.66;5087908;28;20133;-61
2023/04/17 08:11:52;;;;;;;0.55;0.55;;;;;;;10.76;100.00;96392.94;5090578;28;20043;-61
2023/04/17 08:14:24;;;;;;;0.47;0.47;;;;;;;11.52;100.00;96489.53;5083534;27;20635;-65
2023/04/17 08:16:51;;;;;;;0.50;0.50;;;;;;;10.84;100.00;96347.50;5084789;28;20520;-69
2023/04/17 08:19:17;;;;;;;0.52;0.52;;;;;;;11.78;100.00;96475.41;5085146;28;20062;-67
2023/04/17 08:21:48;;;;;;;0.50;0.50;;;;;;;11.74;100.00;96455.22;5071703;28;20052;-64
2023/04/17 08:24:16;;;;;;;0.50;0.50;;;;;;;12.12;100.00;96482.25;5074407;28;20538;-63
2023/04/17 08:26:46;;;;;;;0.50;0.50;;;;;;;12.12;100.00;96459.25;5066953;28;20060;-60
2023/04/17 08:29:12;;;;;;;0.50;0.50;;;;;;;12.11;100.00;96479.84;5065356;28;20092;-61
2023/04/17 08:31:40;;;;;;;0.50;0.50;;;;;;;12.04;100.00;96457.66;5069193;28;20506;-70
2023/04/17 08:34:06;;;;;;;0.52;0.52;;;;;;;12.18;100.00;96491.00;5084335;28;20072;-60
2023/04/17 08:36:41;;;;;;;0.55;0.55;;;;;;;12.20;100.00;96491.41;5083216;28;20048;-65
2023/04/17 08:39:09;;;;;;;0.50;0.50;;;;;;;12.48;100.00;96483.09;5078954;28;20052;-63
2023/04/17 08:41:50;;;;;;;0.50;0.50;;;;;;;11.54;100.00;96340.19;5068925;28;20109;-68
2023/04/17 08:44:20;;;;;;;0.60;0.60;;;;;;;12.30;100.00;96454.50;5065252;28;20080;-62
2023/04/17 08:46:47;;;;;;;0.50;0.50;;;;;;;12.13;100.00;96444.16;5063811;28;20136;-66
2023/04/17 08:49:14;;;;;;;0.50;0.50;;;;;;;12.27;100.00;96448.94;5076337;28;20694;-66
2023/04/17 08:51:41;;;;;;;0.50;0.50;;;;;;;12.02;100.00;96482.22;5083439;28;21681;-65
2023/04/17 08:54:08;;;;;;;0.50;0.50;;;;;;;11.85;100.00;96421.94;5077343;28;20041;-67
2023/04/17 08:56:35;;;;;;;0.50;0.50;;;;;;;12.12;100.00;96482.25;5073733;28;20135;-66
2023/04/17 08:59:02;;;;;;;0.50;0.50;;;;;;;12.01;100.00;96480.66;5067286;28;20396;-62
2023/04/17 09:09:55;;;;;;;0.52;0.52;;;;;;;13.00;100.00;96482.28;5049514;27;20406;-63
2023/04/17 09:12:25;;;;;;;0.57;0.57;;;;;;;12.61;100.00;96459.28;5048117;28;20049;-67
2023/04/17 09:14:52;;;;;;;0.50;0.50;;;;;;;12.48;100.00;96483.09;5041725;28;20052;-64
2023/04/17 09:17:20;;;;;;;0.60;0.60;;;;;;;11.07;100.00;96275.91;5041691;28;20427;-63
2023/04/17 09:20:06;;;;;;;0.50;0.50;;;;;;;11.09;100.00;96184.88;5052154;28;20060;-62
2023/04/17 09:22:34;;;;;;;0.50;0.50;;;;;;;12.05;100.00;96326.78;5060167;28;20087;-64
2023/04/17 09:25:02;;;;;;;0.60;0.60;;;;;;;12.45;100.00;96389.44;5056110;28;20053;-68
2023/04/17 09:27:29;;;;;;;0.50;0.50;;;;;;;12.97;100.00;96483.06;5050104;28;20056;-67
2023/04/17 09:30:04;;;;;;;0.50;0.50;;;;;;;13.04;100.00;96480.28;5038003;28;20095;-69
2023/04/17 09:32:33;;;;;;;0.60;0.60;;;;;;;13.06;100.00;96486.25;5052401;28;20048;-66
2023/04/17 09:35:02;;;;;;;0.60;0.60;;;;;;;13.10;100.00;96442.53;5047529;28;20094;-60
2023/04/17 09:37:58;;;;;;;0.60;0.60;;;;;;;13.24;100.00;96375.78;5017262;28;20054;-61
2023/04/17 09:40:27;;;;;;;0.60;0.60;;;;;;;13.30;100.00;96474.28;5019404;28;20149;-66
2023/04/17 09:43:02;;;;;;;0.50;0.50;;;;;;;12.89;100.00;96455.66;5035865;28;20143;-67
2023/04/17 09:45:35;;;;;;;0.50;0.50;;;;;;;12.83;100.00;96394.16;5055251;28;20478;-63
2023/04/17 09:48:08;;;;;;;0.50;0.50;;;;;;;13.24;100.00;96431.41;5050670;28;20060;-64
2023/04/17 09:50:36;;;;;;;0.57;0.57;;;;;;;13.57;100.00;96444.78;5041981;28;20091;-65
2023/04/17 09:53:05;;;;;;;0.60;0.60;;;;;;;13.50;100.00;96413.41;5044567;28;20506;-67
2023/04/17 09:55:35;;;;;;;0.60;0.60;;;;;;;12.27;100.00;96210.13;5040202;28;20049;-66
2023/04/17 09:58:04;;;;;;;0.60;0.60;;;;;;;13.63;100.00;96448.72;5038244;28;20131;-64
2023/04/17 10:00:31;;;;;;;0.60;0.60;;;;;;;13.58;100.00;96401.84;5040687;28;20060;-65
2023/04/17 10:02:58;;;;;;;0.55;0.55;;;;;;;13.67;100.00;96404.97;5053990;28;20052;-69
2023/04/17 10:05:28;;;;;;;0.60;0.60;;;;;;;14.05;100.00;96413.50;5056695;28;20052;-67
2023/04/17 10:07:55;;;;;;;0.60;0.60;;;;;;;12.94;100.00;96194.78;5057522;28;20118;-64
2023/04/17 10:10:32;;;;;;;0.65;0.65;;;;;;;14.69;100.00;96465.59;5055645;28;20458;-63
2023/04/17 10:13:02;;;;;;;0.60;0.60;;;;;;;14.32;100.00;96406.16;5051526;28;20442;-63
2023/04/17 10:15:29;;;;;;;0.60;0.60;;;;;;;14.74;100.00;96461.56;5036744;28;20593;-62
2023/04/17 10:18:21;;;;;;;0.60;0.60;;;;;;;14.62;100.00;96462.06;5055505;28;20095;-60
2023/04/17 10:20:50;;;;;;;0.60;0.60;;;;;;;14.45;100.00;96415.59;5045831;28;20052;-61
2023/04/17 10:23:30;;;;;;;0.60;0.60;;;;;;;14.75;100.00;96458.34;5046406;28;20052;-61
2023/04/17 10:26:25;;;;;;;0.60;0.60;;;;;;;14.66;100.00;96460.03;5046023;28;20083;-62
2023/04/17 10:28:52;;;;;;;0.60;0.60;;;;;;;13.82;100.00;96399.31;5045987;28;20060;-62
2023/04/17 10:31:21;;;;;;;0.60;0.60;;;;;;;14.02;100.00;96475.59;5045600;28;20391;-62
2023/04/17 10:33:50;;;;;;;0.57;0.57;;;;;;;13.85;100.00;96459.78;5045098;28;20045;-63
2023/04/17 10:36:38;;;;;;;0.50;0.50;;;;;;;13.70;100.00;96454.25;5045247;28;20416;-62
2023/04/17 10:39:12;;;;;;;0.60;0.60;;;;;;;13.40;100.00;96433.72;5045145;28;20048;-62
2023/04/17 10:42:02;;;;;;;0.60;0.60;;;;;;;13.62;100.00;96452.69;5044734;28;20076;-62
2023/04/17 10:44:38;;;;;;;0.60;0.60;;;;;;;13.42;100.00;96420.97;5044667;28;20135;-63
2023/04/17 10:47:06;;;;;;;0.60;0.60;;;;;;;13.63;100.00;96437.59;5044285;28;20352;-62
2023/04/17 10:49:55;;;;;;;0.60;0.60;;;;;;;13.70;100.00;96454.25;5046125;28;20892;-60
2023/04/17 10:52:40;;;;;;;0.60;0.60;;;;;;;13.64;100.00;96439.16;5044645;28;20061;-61
2023/04/17 10:55:09;;;;;;;0.70;0.70;;;;;;;13.67;100.00;96455.06;5045748;28;20400;-61
2023/04/17 10:57:54;;;;;;;0.60;0.60;;;;;;;13.75;100.00;96449.47;5044555;28;20055;-61
2023/04/17 11:00:31;;;;;;;0.60;0.60;;;;;;;13.69;100.00;96452.66;5045843;28;20514;-62
2023/04/17 11:03:03;;;;;;;0.60;0.60;;;;;;;13.74;100.00;96453.47;5045740;28;20072;-61
2023/04/17 11:05:31;;;;;;;0.60;0.60;;;;;;;13.58;100.00;96457.50;5044538;28;20503;-61
2023/04/17 11:07:58;;;;;;;0.60;0.60;;;;;;;13.28;100.00;96426.59;5045517;28;20099;-61
2023/04/17 11:10:25;;;;;;;0.60;0.60;;;;;;;13.42;100.00;96448.81;5044568;28;20551;-61
2023/04/17 11:12:54;;;;;;;0.60;0.60;;;;;;;13.23;100.00;96443.69;5046013;28;20049;-60
2023/04/17 11:15:35;;;;;;;0.50;0.50;;;;;;;13.22;100.00;96433.78;5045565;28;20052;-61
2023/04/17 11:18:03;;;;;;;0.55;0.55;;;;;;;13.21;100.00;96434.19;5044015;28;20052;-61
2023/04/17 11:20:32;;;;;;;0.60;0.60;;;;;;;13.37;100.00;96435.31;5044217;28;20047;-62
2023/04/17 11:23:03;;;;;;;0.60;0.60;;;;;;;12.55;100.00;96282.28;5045341;28;20103;-61
2023/04/17 11:25:32;;;;;;;0.52;0.52;;;;;;;13.07;100.00;96348.81;5045461;28;20068;-62
2023/04/17 11:28:02;;;;;;;0.52;0.52;;;;;;;13.90;100.00;96428.69;5045353;28;20546;-62
2023/04/17 11:30:34;;;;;;;0.60;0.60;;;;;;;13.79;100.00;96373.09;5045351;28;20539;-62
2023/04/17 11:33:06;;;;;;;0.63;0.63;;;;;;;14.22;100.00;96435.66;5044576;28;20061;-61
2023/04/17 11:35:38;;;;;;;0.60;0.60;;;;;;;13.72;100.00;96361.22;5045723;28;20045;-61
2023/04/17 11:38:07;;;;;;;0.60;0.60;;;;;;;14.32;100.00;96422.88;5040895;28;20080;-61
2023/04/17 11:40:34;;;;;;;0.60;0.60;;;;;;;13.57;100.00;96366.88;5024941;28;20065;-61
2023/04/17 11:43:07;;;;;;;0.60;0.60;;;;;;;14.10;100.00;96429.78;5023997;28;20154;-61
2023/04/17 11:45:35;;;;;;;;;;;;;;;14.26;100.00;96418.94;5024629;28;20205;-60
2023/04/17 11:48:02;;;;;;;0.60;0.60;;;;;;;13.87;100.00;96374.63;5025131;28;19983;-61
2023/04/17 11:50:31;;;;;;;0.60;0.60;;;;;;;14.33;100.00;96404.97;5023060;28;20096;-61
2023/04/17 11:52:59;;;;;;;0.65;0.65;;;;;;;14.25;100.00;96389.50;5024884;28;20057;-60
2023/04/17 11:55:30;;;;;;;0.60;0.60;;;;;;;14.55;100.00;96426.69;5024756;28;20085;-61
2023/04/17 11:58:01;;;;;;;0.60;0.60;;;;;;;14.50;100.00;96429.91;5024730;28;20059;-60
2023/04/17 12:00:28;;;;;;;0.60;0.60;;;;;;;14.31;100.00;96424.06;5024623;28;20100;-61
2023/04/17 12:02:57;;;;;;;0.70;0.70;;;;;;;13.73;100.00;96346.09;5024458;28;21224;-60
2023/04/17 12:05:25;;;;;;;0.60;0.60;;;;;;;13.81;100.00;96420.81;5024322;28;20870;-62
2023/04/17 12:08:03;;;;;;;0.60;0.60;;;;;;;13.78;100.00;96437.53;5023950;28;20089;-61
2023/04/17 12:10:35;;;;;;;0.60;0.60;;;;;;;13.50;100.00;96408.63;5024849;28;20115;-61
2023/04/17 12:13:02;;;;;;;0.60;0.60;;;;;;;13.65;100.00;96412.94;5024506;28;20064;-61
2023/04/17 12:15:29;;;;;;;0.60;0.60;;;;;;;13.59;100.00;96414.53;5025030;28;20198;-62
2023/04/17 12:17:55;;;;;;;0.70;0.70;;;;;;;13.22;100.00;96350.34;5022988;28;20557;-62
2023/04/17 12:20:22;;;;;;;0.60;0.60;;;;;;;13.25;100.00;96354.28;5024376;28;20913;-62
2023/04/17 12:22:52;;;;;;;0.60;0.60;;;;;;;13.63;100.00;96408.97;5024450;28;20049;-61
2023/04/17 12:25:18;;;;;;;0.60;0.60;;;;;;;13.70;100.00;96411.72;5024678;28;20080;-62
2023/04/17 12:27:45;;;;;;;0.60;0.60;;;;;;;13.57;100.00;96408.59;5024443;28;20127;-62
2023/04/17 12:30:15;;;;;;;0.60;0.60;;;;;;;13.19;100.00;96334.47;5024241;28;20102;-61
2023/04/17 12:32:47;;;;;;;0.68;0.68;;;;;;;13.81;100.00;96398.53;5023059;28;20046;-63
2023/04/17 12:35:14;;;;;;;0.60;0.60;;;;;;;13.82;100.00;96400.09;5023262;28;20115;-61
2023/04/17 12:37:47;;;;;;;0.60;0.60;;;;;;;13.83;100.00;96400.91;5022692;28;20060;-61
2023/04/17 12:40:17;;;;;;;0.60;0.60;;;;;;;13.83;100.00;96418.38;5024217;28;20069;-61
2023/04/17 12:42:45;;;;;;;0.60;0.60;;;;;;;13.10;100.00;96317.41;5023660;28;20084;-60
2023/04/17 12:45:16;;;;;;;0.57;0.57;;;;;;;13.54;100.00;96389.94;5024218;28;20049;-62
2023/04/17 12:47:43;;;;;;;0.50;0.50;;;;;;;13.43;100.00;96411.47;5023930;28;20060;-62
2023/04/17 12:50:11;;;;;;;0.57;0.57;;;;;;;13.43;100.00;96407.88;5023676;28;20578;-63
2023/04/17 12:52:38;;;;;;;0.60;0.60;;;;;;;13.45;100.00;96409.03;5022344;28;20545;-62
2023/04/17 12:55:06;;;;;;;0.60;0.60;;;;;;;13.27;100.00;96413.91;5022553;28;20139;-61
2023/04/17 12:57:37;;;;;;;0.50;0.50;;;;;;;13.23;100.00;96415.88;5022562;28;20053;-62
2023/04/17 13:00:08;;;;;;;0.50;0.50;;;;;;;13.15;100.00;96394.84;5023750;28;20115;-61
2023/04/17 13:02:35;;;;;;;0.52;0.52;;;;;;;13.24;100.00;96409.16;5003079;28;20519;-62
2023/04/17 13:05:02;;;;;;;0.50;0.50;;;;;;;13.30;100.00;96401.97;5004384;28;20104;-61
2023/04/17 13:07:29;;;;;;;0.60;0.60;;;;;;;13.31;100.00;96409.09;5004021;28;20160;-64
2023/04/17 13:09:56;;;;;;;0.50;0.50;;;;;;;13.36;100.00;96400.34;5003338;28;20054;-61
2023/04/17 13:12:23;;;;;;;0.55;0.55;;;;;;;12.72;100.00;96314.78;5004233;28;20077;-61
2023/04/17 13:14:50;;;;;;;0.60;0.60;;;;;;;13.23;100.00;96404.75;5004194;28;20050;-62
2023/04/17 13:17:17;;;;;;;0.50;0.50;;;;;;;13.15;100.00;96408.75;5002813;28;20085;-61
2023/04/17 13:19:43;;;;;;;0.52;0.52;;;;;;;13.14;100.00;96409.97;5002619;28;20064;-61
2023/04/17 13:22:11;;;;;;;0.60;0.60;;;;;;;13.15;100.00;96394.84;5004040;28;20069;-63
2023/04/17 13:24:37;;;;;;;0.55;0.55;;;;;;;12.77;100.00;96345.69;5004260;28;20500;-62
2023/04/17 13:27:04;;;;;;;0.50;0.50;;;;;;;12.61;100.00;96328.69;5002784;28;20057;-63
2023/04/17 13:29:31;;;;;;;0.50;0.50;;;;;;;13.08;100.00;96406.03;5004398;28;20050;-61
2023/04/17 13:31:58;;;;;;;0.50;0.50;;;;;;;13.06;100.00;96397.28;5003877;28;20516;-61
2023/04/17 13:34:24;;;;;;;0.50;0.50;;;;;;;13.11;100.00;96404.41;5004538;28;20116;-62
2023/04/17 13:36:51;;;;;;;0.55;0.55;;;;;;;12.70;100.00;96354.06;5002605;28;20041;-62
2023/04/17 13:39:18;;;;;;;0.60;0.60;;;;;;;13.23;100.00;96413.09;5011785;28;20727;-63
2023/04/17 13:41:44;;;;;;;0.60;0.60;;;;;;;13.14;100.00;96393.28;5006265;28;20062;-62
2023/04/17 13:44:12;;;;;;;0.57;0.57;;;;;;;13.39;100.00;96409.88;5016454;28;20058;-62
2023/04/17 13:46:40;;;;;;;0.60;0.60;;;;;;;13.10;100.00;96342.44;5002186;28;20053;-61
2023/04/17 13:49:07;;;;;;;0.60;0.60;;;;;;;13.61;100.00;96375.16;4999924;28;20525;-61
2023/04/17 13:51:33;;;;;;;0.60;0.60;;;;;;;14.00;100.00;96405.56;5002476;28;20050;-62
2023/04/17 13:54:00;;;;;;;0.60;0.60;;;;;;;14.15;100.00;96395.91;5002541;28;20058;-62
2023/04/17 13:56:27;;;;;;;0.60;0.60;;;;;;;14.17;100.00;96365.66;5005657;28;20046;-61
2023/04/17 13:58:54;;;;;;;0.70;0.70;;;;;;;14.39;100.00;96400.53;5005401;28;20116;-61
2023/04/17 14:01:21;;;;;;;0.70;0.70;;;;;;;14.56;100.00;96394.00;5005448;28;20064;-60
2023/04/17 14:03:47;;;;;;;0.60;0.60;;;;;;;14.59;100.00;96387.63;5004103;28;20577;-60
2023/04/17 14:06:16;;;;;;;0.60;0.60;;;;;;;14.47;100.00;96390.91;5005474;28;20045;-60
2023/04/17 14:08:45;;;;;;;0.70;0.70;;;;;;;14.20;100.00;96398.25;5006272;28;20111;-61
2023/04/17 14:11:12;;;;;;;0.60;0.60;;;;;;;14.05;100.00;96386.44;5007109;28;20049;-59
2023/04/17 14:13:39;;;;;;;0.60;0.60;;;;;;;14.16;100.00;96383.56;5016062;28;20498;-59
2023/04/17 14:16:06;;;;;;;0.60;0.60;;;;;;;14.19;100.00;96388.31;5026135;28;20088;-60
2023/04/17 14:18:32;;;;;;;0.60;0.60;;;;;;;14.21;100.00;96372.00;5027055;28;20060;-60
2023/04/17 14:20:59;;;;;;;0.60;0.60;;;;;;;14.35;100.00;96383.06;5027089;28;20495;-60
2023/04/17 14:23:26;;;;;;;0.60;0.60;;;;;;;14.30;100.00;96380.72;5026512;28;20343;-60
2023/04/17 14:25:53;;;;;;;0.70;0.70;;;;;;;14.31;100.00;96379.50;5027070;28;20053;-60
2023/04/17 14:28:20;;;;;;;0.68;0.68;;;;;;;14.10;100.00;96371.28;5026970;28;20164;-60
2023/04/17 14:30:47;;;;;;;0.63;0.63;;;;;;;14.05;100.00;96374.50;5027024;28;20144;-62